sensor_id;sensor_type;location;lat;lon;timestamp;P1;durP1;ratioP1;P2;durP2;ratioP2
26478;SDS011;14163;-26.142;27.992;2024-03-06T00:04:16;6.57;;;5.87;;
26478;SDS011;14163;-26.142;27.992;2024-03-06T00:06:45;9.40;;;5.77;;
26478;SDS011;14163;-26.142;27.992;2024-03-06T00:09:14;7.87;;;5.40;;
26478;SDS011;14163;-26.142;27.992;2024-03-06T00:11:44;6.77;;;5.70;;
26478;SDS011;14163;-26.142;27.992;2024-03-06T00:14:13;5.83;;;5.43;;
26478;SDS011;14163;-26.142;27.992;2024-03-06T00:16:42;6.10;;;5.03;;
26478;SDS011;14163;-26.142;27.992;2024-03-06T00:19:12;8.47;;;5.30;;
26478;SDS011;14163;-26.142;27.992;2024-03-06T00:21:42;5.90;;;5.30;;
26478;SDS011;14163;-26.142;27.992;2024-03-06T00:24:12;9.63;;;5.50;;
26478;SDS011;14163;-26.142;27.992;2024-03-06T00:26:41;6.80;;;5.70;;
26478;SDS011;14163;-26.142;27.992;2024-03-06T00:29:12;9.20;;;6.20;;
26478;SDS011;14163;-26.142;27.992;2024-03-06T00:31:42;5.77;;;5.23;;
26478;SDS011;14163;-26.142;27.992;2024-03-06T00:34:11;6.27;;;5.60;;
26478;SDS011;14163;-26.142;27.992;2024-03-06T00:36:43;5.97;;;5.50;;
26478;SDS011;14163;-26.142;27.992;2024-03-06T00:39:12;9.40;;;6.07;;
26478;SDS011;14163;-26.142;27.992;2024-03-06T00:41:41;6.90;;;6.37;;
26478;SDS011;14163;-26.142;27.992;2024-03-06T00:44:11;6.17;;;5.57;;
26478;SDS011;14163;-26.142;27.992;2024-03-06T00:46:40;8.33;;;6.50;;
26478;SDS011;14163;-26.142;27.992;2024-03-06T00:49:09;8.27;;;6.60;;
26478;SDS011;14163;-26.142;27.992;2024-03-06T00:51:38;21.80;;;15.67;;
26478;SDS011;14163;-26.142;27.992;2024-03-06T00:54:09;14.37;;;10.40;;
26478;SDS011;14163;-26.142;27.992;2024-03-06T00:56:38;11.90;;;10.43;;
26478;SDS011;14163;-26.142;27.992;2024-03-06T00:59:07;10.97;;;9.00;;
26478;SDS011;14163;-26.142;27.992;2024-03-06T01:01:36;10.03;;;7.30;;
26478;SDS011;14163;-26.142;27.992;2024-03-06T01:04:05;8.50;;;7.03;;
26478;SDS011;14163;-26.142;27.992;2024-03-06T01:06:34;9.37;;;7.57;;
26478;SDS011;14163;-26.142;27.992;2024-03-06T01:09:04;8.63;;;7.50;;
26478;SDS011;14163;-26.142;27.992;2024-03-06T01:11:34;9.57;;;8.60;;
26478;SDS011;14163;-26.142;27.992;2024-03-06T01:14:04;11.23;;;8.73;;
26478;SDS011;14163;-26.142;27.992;2024-03-06T01:16:33;13.20;;;9.03;;
26478;SDS011;14163;-26.142;27.992;2024-03-06T01:19:02;10.43;;;8.30;;
26478;SDS011;14163;-26.142;27.992;2024-03-06T01:21:31;10.47;;;9.33;;
26478;SDS011;14163;-26.142;27.992;2024-03-06T01:24:00;13.40;;;9.77;;
26478;SDS011;14163;-26.142;27.992;2024-03-06T01:26:30;12.40;;;9.63;;
26478;SDS011;14163;-26.142;27.992;2024-03-06T01:29:01;12.20;;;10.60;;
26478;SDS011;14163;-26.142;27.992;2024-03-06T01:31:30;11.43;;;10.20;;
26478;SDS011;14163;-26.142;27.992;2024-03-06T01:33:59;13.50;;;11.23;;
26478;SDS011;14163;-26.142;27.992;2024-03-06T01:36:28;14.43;;;11.40;;
26478;SDS011;14163;-26.142;27.992;2024-03-06T01:38:59;13.80;;;11.33;;
26478;SDS011;14163;-26.142;27.992;2024-03-06T01:41:31;13.27;;;10.60;;
26478;SDS011;14163;-26.142;27.992;2024-03-06T01:44:02;10.60;;;9.60;;
26478;SDS011;14163;-26.142;27.992;2024-03-06T01:46:31;11.83;;;10.37;;
26478;SDS011;14163;-26.142;27.992;2024-03-06T01:49:00;12.43;;;10.07;;
26478;SDS011;14163;-26.142;27.992;2024-03-06T01:51:30;10.83;;;9.60;;
26478;SDS011;14163;-26.142;27.992;2024-03-06T01:53:59;9.73;;;8.70;;
26478;SDS011;14163;-26.142;27.992;2024-03-06T01:56:30;10.43;;;8.67;;
26478;SDS011;14163;-26.142;27.992;2024-03-06T01:59:02;8.30;;;7.50;;
26478;SDS011;14163;-26.142;27.992;2024-03-06T02:01:32;10.97;;;7.70;;
26478;SDS011;14163;-26.142;27.992;2024-03-06T02:04:01;10.23;;;8.03;;
26478;SDS011;14163;-26.142;27.992;2024-03-06T02:06:30;11.47;;;8.93;;
26478;SDS011;14163;-26.142;27.992;2024-03-06T02:09:00;12.47;;;9.17;;
26478;SDS011;14163;-26.142;27.992;2024-03-06T02:11:30;10.43;;;8.20;;
26478;SDS011;14163;-26.142;27.992;2024-03-06T02:13:59;11.87;;;7.87;;
26478;SDS011;14163;-26.142;27.992;2024-03-06T02:16:32;9.60;;;7.43;;
26478;SDS011;14163;-26.142;27.992;2024-03-06T02:19:01;11.53;;;8.30;;
26478;SDS011;14163;-26.142;27.992;2024-03-06T02:21:32;9.33;;;7.77;;
26478;SDS011;14163;-26.142;27.992;2024-03-06T02:24:01;9.47;;;7.70;;
26478;SDS011;14163;-26.142;27.992;2024-03-06T02:26:30;10.27;;;6.93;;
26478;SDS011;14163;-26.142;27.992;2024-03-06T02:28:59;11.63;;;8.40;;
26478;SDS011;14163;-26.142;27.992;2024-03-06T02:31:31;9.73;;;8.33;;
26478;SDS011;14163;-26.142;27.992;2024-03-06T02:34:00;11.60;;;7.77;;
26478;SDS011;14163;-26.142;27.992;2024-03-06T02:36:33;9.30;;;8.30;;
26478;SDS011;14163;-26.142;27.992;2024-03-06T02:39:03;11.27;;;7.93;;
26478;SDS011;14163;-26.142;27.992;2024-03-06T02:41:34;12.87;;;8.23;;
26478;SDS011;14163;-26.142;27.992;2024-03-06T02:44:04;16.23;;;8.60;;
26478;SDS011;14163;-26.142;27.992;2024-03-06T02:46:33;13.93;;;8.23;;
26478;SDS011;14163;-26.142;27.992;2024-03-06T02:49:02;11.83;;;8.13;;
26478;SDS011;14163;-26.142;27.992;2024-03-06T02:51:33;10.40;;;7.30;;
26478;SDS011;14163;-26.142;27.992;2024-03-06T02:54:02;11.43;;;8.30;;
26478;SDS011;14163;-26.142;27.992;2024-03-06T02:56:31;10.60;;;8.00;;
26478;SDS011;14163;-26.142;27.992;2024-03-06T02:59:00;9.93;;;7.20;;
26478;SDS011;14163;-26.142;27.992;2024-03-06T03:01:30;12.43;;;7.60;;
26478;SDS011;14163;-26.142;27.992;2024-03-06T03:03:59;10.87;;;7.53;;
26478;SDS011;14163;-26.142;27.992;2024-03-06T03:06:29;11.53;;;8.53;;
26478;SDS011;14163;-26.142;27.992;2024-03-06T03:08:59;9.13;;;6.93;;
26478;SDS011;14163;-26.142;27.992;2024-03-06T03:11:29;10.17;;;7.70;;
26478;SDS011;14163;-26.142;27.992;2024-03-06T03:13:59;10.83;;;8.23;;
26478;SDS011;14163;-26.142;27.992;2024-03-06T03:16:28;8.53;;;7.73;;
26478;SDS011;14163;-26.142;27.992;2024-03-06T03:18:58;8.87;;;7.53;;
26478;SDS011;14163;-26.142;27.992;2024-03-06T03:21:27;8.17;;;7.13;;
26478;SDS011;14163;-26.142;27.992;2024-03-06T03:23:56;8.77;;;7.70;;
26478;SDS011;14163;-26.142;27.992;2024-03-06T03:26:27;7.80;;;7.00;;
26478;SDS011;14163;-26.142;27.992;2024-03-06T03:28:56;8.47;;;6.20;;
26478;SDS011;14163;-26.142;27.992;2024-03-06T03:31:25;12.00;;;6.23;;
26478;SDS011;14163;-26.142;27.992;2024-03-06T03:33:54;6.80;;;6.20;;
26478;SDS011;14163;-26.142;27.992;2024-03-06T03:36:23;6.13;;;4.83;;
26478;SDS011;14163;-26.142;27.992;2024-03-06T03:38:52;23.03;;;16.27;;
26478;SDS011;14163;-26.142;27.992;2024-03-06T03:41:23;24.50;;;18.40;;
26478;SDS011;14163;-26.142;27.992;2024-03-06T03:43:52;35.60;;;29.53;;
26478;SDS011;14163;-26.142;27.992;2024-03-06T03:46:22;12.27;;;8.20;;
26478;SDS011;14163;-26.142;27.992;2024-03-06T03:48:51;7.00;;;4.73;;
26478;SDS011;14163;-26.142;27.992;2024-03-06T03:51:20;3.80;;;3.50;;
26478;SDS011;14163;-26.142;27.992;2024-03-06T03:53:49;4.43;;;3.40;;
26478;SDS011;14163;-26.142;27.992;2024-03-06T03:56:18;4.43;;;4.03;;
26478;SDS011;14163;-26.142;27.992;2024-03-06T03:58:49;3.10;;;2.87;;
26478;SDS011;14163;-26.142;27.992;2024-03-06T04:01:18;6.50;;;3.50;;
26478;SDS011;14163;-26.142;27.992;2024-03-06T04:03:48;3.30;;;3.00;;
26478;SDS011;14163;-26.142;27.992;2024-03-06T04:06:18;3.47;;;3.17;;
26478;SDS011;14163;-26.142;27.992;2024-03-06T04:08:47;3.33;;;3.03;;
26478;SDS011;14163;-26.142;27.992;2024-03-06T04:11:16;14.57;;;10.73;;
26478;SDS011;14163;-26.142;27.992;2024-03-06T04:13:45;12.57;;;9.90;;
26478;SDS011;14163;-26.142;27.992;2024-03-06T04:16:17;7.03;;;6.33;;
26478;SDS011;14163;-26.142;27.992;2024-03-06T04:18:46;4.50;;;4.10;;
26478;SDS011;14163;-26.142;27.992;2024-03-06T04:21:16;4.90;;;3.67;;
26478;SDS011;14163;-26.142;27.992;2024-03-06T04:23:45;3.53;;;3.20;;
26478;SDS011;14163;-26.142;27.992;2024-03-06T04:26:14;3.60;;;3.30;;
26478;SDS011;14163;-26.142;27.992;2024-03-06T04:28:43;6.77;;;3.27;;
26478;SDS011;14163;-26.142;27.992;2024-03-06T04:31:12;3.30;;;3.03;;
26478;SDS011;14163;-26.142;27.992;2024-03-06T04:33:43;3.20;;;3.00;;
26478;SDS011;14163;-26.142;27.992;2024-03-06T04:36:13;3.70;;;2.97;;
26478;SDS011;14163;-26.142;27.992;2024-03-06T04:38:42;3.80;;;3.33;;
26478;SDS011;14163;-26.142;27.992;2024-03-06T04:41:11;7.50;;;4.00;;
26478;SDS011;14163;-26.142;27.992;2024-03-06T04:43:40;4.23;;;3.73;;
26478;SDS011;14163;-26.142;27.992;2024-03-06T04:46:12;4.03;;;3.40;;
26478;SDS011;14163;-26.142;27.992;2024-03-06T04:48:43;4.60;;;4.20;;
26478;SDS011;14163;-26.142;27.992;2024-03-06T04:51:12;5.47;;;4.13;;
26478;SDS011;14163;-26.142;27.992;2024-03-06T04:53:41;4.50;;;3.90;;
26478;SDS011;14163;-26.142;27.992;2024-03-06T04:56:10;5.17;;;4.20;;
26478;SDS011;14163;-26.142;27.992;2024-03-06T04:58:40;5.30;;;4.80;;
26478;SDS011;14163;-26.142;27.992;2024-03-06T05:01:10;4.67;;;4.27;;
26478;SDS011;14163;-26.142;27.992;2024-03-06T05:03:39;5.80;;;5.07;;
26478;SDS011;14163;-26.142;27.992;2024-03-06T05:06:10;5.90;;;5.10;;
26478;SDS011;14163;-26.142;27.992;2024-03-06T05:08:39;5.90;;;5.40;;
26478;SDS011;14163;-26.142;27.992;2024-03-06T05:11:08;11.27;;;5.10;;
26478;SDS011;14163;-26.142;27.992;2024-03-06T05:13:37;8.97;;;5.80;;
26478;SDS011;14163;-26.142;27.992;2024-03-06T05:16:06;7.47;;;5.17;;
26478;SDS011;14163;-26.142;27.992;2024-03-06T05:18:36;7.40;;;5.60;;
26478;SDS011;14163;-26.142;27.992;2024-03-06T05:21:05;11.63;;;7.00;;
26478;SDS011;14163;-26.142;27.992;2024-03-06T05:23:36;8.57;;;6.93;;
26478;SDS011;14163;-26.142;27.992;2024-03-06T05:26:05;8.30;;;6.77;;
26478;SDS011;14163;-26.142;27.992;2024-03-06T05:28:35;9.93;;;6.70;;
26478;SDS011;14163;-26.142;27.992;2024-03-06T05:31:13;9.40;;;6.87;;
26478;SDS011;14163;-26.142;27.992;2024-03-06T05:33:45;9.17;;;7.50;;
26478;SDS011;14163;-26.142;27.992;2024-03-06T05:36:16;8.90;;;8.03;;
26478;SDS011;14163;-26.142;27.992;2024-03-06T05:38:46;10.67;;;9.67;;
26478;SDS011;14163;-26.142;27.992;2024-03-06T05:41:15;11.40;;;10.30;;
26478;SDS011;14163;-26.142;27.992;2024-03-06T05:43:45;11.00;;;9.60;;
26478;SDS011;14163;-26.142;27.992;2024-03-06T05:46:14;11.60;;;10.40;;
26478;SDS011;14163;-26.142;27.992;2024-03-06T05:48:45;12.43;;;10.80;;
26478;SDS011;14163;-26.142;27.992;2024-03-06T05:51:14;13.13;;;10.77;;
26478;SDS011;14163;-26.142;27.992;2024-03-06T05:53:43;13.47;;;9.60;;
26478;SDS011;14163;-26.142;27.992;2024-03-06T05:56:14;10.47;;;9.07;;
26478;SDS011;14163;-26.142;27.992;2024-03-06T05:58:44;12.70;;;10.00;;
26478;SDS011;14163;-26.142;27.992;2024-03-06T06:01:15;12.63;;;10.20;;
26478;SDS011;14163;-26.142;27.992;2024-03-06T06:03:46;12.30;;;10.57;;
26478;SDS011;14163;-26.142;27.992;2024-03-06T06:06:15;13.10;;;9.80;;
26478;SDS011;14163;-26.142;27.992;2024-03-06T06:08:46;11.57;;;10.43;;
26478;SDS011;14163;-26.142;27.992;2024-03-06T06:11:15;10.73;;;9.63;;
26478;SDS011;14163;-26.142;27.992;2024-03-06T06:13:45;11.43;;;9.40;;
26478;SDS011;14163;-26.142;27.992;2024-03-06T06:16:14;12.53;;;11.07;;
26478;SDS011;14163;-26.142;27.992;2024-03-06T06:18:43;11.40;;;9.83;;
26478;SDS011;14163;-26.142;27.992;2024-03-06T06:21:12;10.20;;;9.20;;
26478;SDS011;14163;-26.142;27.992;2024-03-06T06:23:41;11.53;;;9.60;;
26478;SDS011;14163;-26.142;27.992;2024-03-06T06:26:12;9.43;;;7.80;;
26478;SDS011;14163;-26.142;27.992;2024-03-06T06:28:42;9.53;;;8.73;;
26478;SDS011;14163;-26.142;27.992;2024-03-06T06:31:12;9.23;;;8.27;;
26478;SDS011;14163;-26.142;27.992;2024-03-06T06:33:41;9.20;;;8.37;;
26478;SDS011;14163;-26.142;27.992;2024-03-06T06:36:11;9.27;;;8.37;;
26478;SDS011;14163;-26.142;27.992;2024-03-06T06:38:40;11.10;;;8.63;;
26478;SDS011;14163;-26.142;27.992;2024-03-06T06:41:10;11.00;;;8.93;;
26478;SDS011;14163;-26.142;27.992;2024-03-06T06:43:41;11.90;;;9.00;;
26478;SDS011;14163;-26.142;27.992;2024-03-06T06:46:10;9.67;;;8.87;;
26478;SDS011;14163;-26.142;27.992;2024-03-06T06:48:39;17.60;;;9.57;;
26478;SDS011;14163;-26.142;27.992;2024-03-06T06:51:08;11.10;;;9.90;;
26478;SDS011;14163;-26.142;27.992;2024-03-06T06:53:39;10.37;;;8.97;;
26478;SDS011;14163;-26.142;27.992;2024-03-06T06:56:09;10.53;;;8.27;;
26478;SDS011;14163;-26.142;27.992;2024-03-06T06:58:40;13.87;;;9.80;;
26478;SDS011;14163;-26.142;27.992;2024-03-06T07:01:09;9.40;;;8.50;;
26478;SDS011;14163;-26.142;27.992;2024-03-06T07:03:38;9.90;;;9.00;;
26478;SDS011;14163;-26.142;27.992;2024-03-06T07:06:07;11.40;;;9.50;;
26478;SDS011;14163;-26.142;27.992;2024-03-06T07:08:36;9.93;;;8.93;;
26478;SDS011;14163;-26.142;27.992;2024-03-06T07:11:06;11.07;;;9.80;;
26478;SDS011;14163;-26.142;27.992;2024-03-06T07:13:36;17.13;;;11.37;;
26478;SDS011;14163;-26.142;27.992;2024-03-06T07:16:07;13.33;;;11.33;;
26478;SDS011;14163;-26.142;27.992;2024-03-06T07:18:37;18.13;;;12.33;;
26478;SDS011;14163;-26.142;27.992;2024-03-06T07:21:06;14.33;;;11.40;;
26478;SDS011;14163;-26.142;27.992;2024-03-06T07:23:35;14.60;;;12.03;;
26478;SDS011;14163;-26.142;27.992;2024-03-06T07:26:04;14.83;;;11.20;;
26478;SDS011;14163;-26.142;27.992;2024-03-06T07:28:33;12.67;;;11.37;;
26478;SDS011;14163;-26.142;27.992;2024-03-06T07:31:03;10.93;;;9.70;;
26478;SDS011;14163;-26.142;27.992;2024-03-06T07:33:34;11.97;;;9.87;;
26478;SDS011;14163;-26.142;27.992;2024-03-06T07:36:03;11.50;;;9.97;;
26478;SDS011;14163;-26.142;27.992;2024-03-06T07:38:33;11.90;;;10.70;;
26478;SDS011;14163;-26.142;27.992;2024-03-06T07:41:02;12.47;;;10.73;;
26478;SDS011;14163;-26.142;27.992;2024-03-06T07:43:32;14.03;;;11.40;;
26478;SDS011;14163;-26.142;27.992;2024-03-06T07:46:01;11.30;;;10.10;;
26478;SDS011;14163;-26.142;27.992;2024-03-06T07:48:37;14.33;;;10.57;;
26478;SDS011;14163;-26.142;27.992;2024-03-06T07:51:09;13.07;;;11.23;;
26478;SDS011;14163;-26.142;27.992;2024-03-06T07:53:39;17.63;;;11.20;;
26478;SDS011;14163;-26.142;27.992;2024-03-06T07:56:10;12.23;;;10.63;;
26478;SDS011;14163;-26.142;27.992;2024-03-06T07:58:39;11.77;;;10.67;;
26478;SDS011;14163;-26.142;27.992;2024-03-06T08:01:08;20.93;;;11.77;;
26478;SDS011;14163;-26.142;27.992;2024-03-06T08:03:40;13.63;;;11.40;;
26478;SDS011;14163;-26.142;27.992;2024-03-06T08:06:10;13.47;;;10.60;;
26478;SDS011;14163;-26.142;27.992;2024-03-06T08:08:41;17.10;;;11.80;;
26478;SDS011;14163;-26.142;27.992;2024-03-06T08:11:10;13.77;;;10.80;;
26478;SDS011;14163;-26.142;27.992;2024-03-06T08:13:39;10.80;;;9.07;;
26478;SDS011;14163;-26.142;27.992;2024-03-06T08:16:09;10.80;;;9.70;;
26478;SDS011;14163;-26.142;27.992;2024-03-06T08:18:38;11.40;;;9.10;;
26478;SDS011;14163;-26.142;27.992;2024-03-06T08:21:07;9.87;;;8.87;;
26478;SDS011;14163;-26.142;27.992;2024-03-06T08:23:36;9.57;;;8.60;;
26478;SDS011;14163;-26.142;27.992;2024-03-06T08:26:05;10.20;;;9.50;;
26478;SDS011;14163;-26.142;27.992;2024-03-06T08:28:35;9.20;;;8.23;;
26478;SDS011;14163;-26.142;27.992;2024-03-06T08:31:04;9.53;;;8.63;;
26478;SDS011;14163;-26.142;27.992;2024-03-06T08:33:34;9.30;;;8.40;;
26478;SDS011;14163;-26.142;27.992;2024-03-06T08:36:05;8.47;;;7.60;;
26478;SDS011;14163;-26.142;27.992;2024-03-06T08:38:34;9.73;;;8.93;;
26478;SDS011;14163;-26.142;27.992;2024-03-06T08:41:04;8.87;;;8.00;;
26478;SDS011;14163;-26.142;27.992;2024-03-06T08:43:33;8.93;;;8.13;;
26478;SDS011;14163;-26.142;27.992;2024-03-06T08:46:02;11.90;;;7.93;;
26478;SDS011;14163;-26.142;27.992;2024-03-06T08:48:31;8.90;;;8.10;;
26478;SDS011;14163;-26.142;27.992;2024-03-06T08:51:01;8.70;;;7.83;;
26478;SDS011;14163;-26.142;27.992;2024-03-06T08:53:38;14.73;;;8.63;;
26478;SDS011;14163;-26.142;27.992;2024-03-06T08:56:07;12.33;;;8.90;;
26478;SDS011;14163;-26.142;27.992;2024-03-06T08:58:36;9.93;;;9.07;;
26478;SDS011;14163;-26.142;27.992;2024-03-06T09:01:05;9.47;;;8.57;;
26478;SDS011;14163;-26.142;27.992;2024-03-06T09:03:35;9.80;;;8.93;;
26478;SDS011;14163;-26.142;27.992;2024-03-06T09:06:04;9.17;;;8.47;;
26478;SDS011;14163;-26.142;27.992;2024-03-06T09:08:33;9.77;;;8.90;;
26478;SDS011;14163;-26.142;27.992;2024-03-06T09:11:04;10.30;;;9.40;;
26478;SDS011;14163;-26.142;27.992;2024-03-06T09:13:33;8.53;;;7.27;;
26478;SDS011;14163;-26.142;27.992;2024-03-06T09:16:02;10.40;;;8.47;;
26478;SDS011;14163;-26.142;27.992;2024-03-06T09:18:32;12.53;;;7.60;;
26478;SDS011;14163;-26.142;27.992;2024-03-06T09:21:01;8.07;;;7.40;;
26478;SDS011;14163;-26.142;27.992;2024-03-06T09:23:30;7.93;;;7.13;;
26478;SDS011;14163;-26.142;27.992;2024-03-06T09:25:59;8.47;;;7.67;;
26478;SDS011;14163;-26.142;27.992;2024-03-06T09:28:30;8.90;;;8.10;;
26478;SDS011;14163;-26.142;27.992;2024-03-06T09:30:59;8.43;;;7.73;;
26478;SDS011;14163;-26.142;27.992;2024-03-06T09:33:28;8.63;;;8.03;;
26478;SDS011;14163;-26.142;27.992;2024-03-06T09:35:57;9.53;;;8.63;;
26478;SDS011;14163;-26.142;27.992;2024-03-06T09:38:26;9.60;;;8.60;;
26478;SDS011;14163;-26.142;27.992;2024-03-06T09:40:56;8.30;;;7.60;;
26478;SDS011;14163;-26.142;27.992;2024-03-06T09:43:25;9.30;;;8.60;;
26478;SDS011;14163;-26.142;27.992;2024-03-06T09:45:56;9.87;;;8.80;;
26478;SDS011;14163;-26.142;27.992;2024-03-06T09:48:27;8.77;;;8.07;;
26478;SDS011;14163;-26.142;27.992;2024-03-06T09:50:57;9.53;;;7.90;;
26478;SDS011;14163;-26.142;27.992;2024-03-06T09:53:29;9.17;;;8.00;;
26478;SDS011;14163;-26.142;27.992;2024-03-06T09:55:59;10.10;;;8.50;;
26478;SDS011;14163;-26.142;27.992;2024-03-06T09:58:29;15.03;;;8.00;;
26478;SDS011;14163;-26.142;27.992;2024-03-06T10:01:00;8.90;;;8.10;;
26478;SDS011;14163;-26.142;27.992;2024-03-06T10:03:30;8.43;;;7.60;;
26478;SDS011;14163;-26.142;27.992;2024-03-06T10:05:59;8.90;;;8.20;;
26478;SDS011;14163;-26.142;27.992;2024-03-06T10:08:28;8.87;;;7.90;;
26478;SDS011;14163;-26.142;27.992;2024-03-06T10:10:58;9.63;;;8.80;;
26478;SDS011;14163;-26.142;27.992;2024-03-06T10:13:28;8.40;;;7.70;;
26478;SDS011;14163;-26.142;27.992;2024-03-06T10:15:57;8.20;;;7.40;;
26478;SDS011;14163;-26.142;27.992;2024-03-06T10:18:29;9.07;;;8.27;;
26478;SDS011;14163;-26.142;27.992;2024-03-06T10:20:59;8.60;;;7.83;;
26478;SDS011;14163;-26.142;27.992;2024-03-06T10:23:29;7.97;;;7.27;;
26478;SDS011;14163;-26.142;27.992;2024-03-06T10:26:00;7.63;;;6.60;;
26478;SDS011;14163;-26.142;27.992;2024-03-06T10:28:29;8.00;;;7.30;;
26478;SDS011;14163;-26.142;27.992;2024-03-06T10:31:04;6.90;;;6.20;;
26478;SDS011;14163;-26.142;27.992;2024-03-06T10:33:35;8.57;;;7.50;;
26478;SDS011;14163;-26.142;27.992;2024-03-06T10:36:05;7.50;;;7.00;;
26478;SDS011;14163;-26.142;27.992;2024-03-06T10:38:38;9.40;;;7.57;;
26478;SDS011;14163;-26.142;27.992;2024-03-06T10:41:12;8.77;;;7.47;;
26478;SDS011;14163;-26.142;27.992;2024-03-06T10:43:43;8.27;;;7.50;;
26478;SDS011;14163;-26.142;27.992;2024-03-06T10:46:16;9.00;;;8.23;;
26478;SDS011;14163;-26.142;27.992;2024-03-06T10:48:49;9.90;;;8.90;;
26478;SDS011;14163;-26.142;27.992;2024-03-06T10:51:19;10.30;;;9.30;;
26478;SDS011;14163;-26.142;27.992;2024-03-06T10:53:50;11.20;;;9.87;;
26478;SDS011;14163;-26.142;27.992;2024-03-06T10:56:19;10.00;;;8.60;;
26478;SDS011;14163;-26.142;27.992;2024-03-06T10:58:50;8.20;;;7.70;;
26478;SDS011;14163;-26.142;27.992;2024-03-06T11:01:23;9.03;;;8.23;;
26478;SDS011;14163;-26.142;27.992;2024-03-06T11:03:53;7.70;;;7.20;;
26478;SDS011;14163;-26.142;27.992;2024-03-06T11:06:22;9.70;;;8.00;;
26478;SDS011;14163;-26.142;27.992;2024-03-06T11:08:53;8.17;;;7.37;;
26478;SDS011;14163;-26.142;27.992;2024-03-06T11:11:22;8.90;;;8.03;;
26478;SDS011;14163;-26.142;27.992;2024-03-06T11:13:54;9.03;;;8.17;;
26478;SDS011;14163;-26.142;27.992;2024-03-06T11:16:29;8.70;;;8.00;;
26478;SDS011;14163;-26.142;27.992;2024-03-06T11:19:05;8.40;;;7.77;;
26478;SDS011;14163;-26.142;27.992;2024-03-06T11:21:36;9.30;;;8.50;;
26478;SDS011;14163;-26.142;27.992;2024-03-06T11:24:15;9.20;;;8.20;;
26478;SDS011;14163;-26.142;27.992;2024-03-06T11:26:55;9.17;;;8.47;;
26478;SDS011;14163;-26.142;27.992;2024-03-06T11:29:27;9.00;;;8.30;;
26478;SDS011;14163;-26.142;27.992;2024-03-06T11:32:00;10.73;;;9.60;;
26478;SDS011;14163;-26.142;27.992;2024-03-06T11:34:29;10.80;;;9.20;;
26478;SDS011;14163;-26.142;27.992;2024-03-06T11:36:58;10.40;;;8.70;;
26478;SDS011;14163;-26.142;27.992;2024-03-06T11:39:33;10.33;;;9.33;;
26478;SDS011;14163;-26.142;27.992;2024-03-06T11:42:03;10.80;;;10.00;;
26478;SDS011;14163;-26.142;27.992;2024-03-06T11:44:34;10.03;;;9.33;;
26478;SDS011;14163;-26.142;27.992;2024-03-06T11:47:06;13.43;;;10.13;;
26478;SDS011;14163;-26.142;27.992;2024-03-06T11:49:36;10.50;;;9.50;;
26478;SDS011;14163;-26.142;27.992;2024-03-06T11:52:06;7.80;;;7.13;;
26478;SDS011;14163;-26.142;27.992;2024-03-06T11:54:36;7.70;;;7.00;;
26478;SDS011;14163;-26.142;27.992;2024-03-06T11:57:05;6.57;;;6.17;;
26478;SDS011;14163;-26.142;27.992;2024-03-06T11:59:36;7.40;;;6.80;;
26478;SDS011;14163;-26.142;27.992;2024-03-06T12:02:07;7.90;;;7.40;;
26478;SDS011;14163;-26.142;27.992;2024-03-06T12:04:36;9.67;;;8.10;;
26478;SDS011;14163;-26.142;27.992;2024-03-06T12:07:06;8.10;;;7.50;;
26478;SDS011;14163;-26.142;27.992;2024-03-06T12:09:35;9.47;;;8.37;;
26478;SDS011;14163;-26.142;27.992;2024-03-06T12:12:06;8.37;;;7.57;;
26478;SDS011;14163;-26.142;27.992;2024-03-06T12:14:35;8.83;;;8.13;;
26478;SDS011;14163;-26.142;27.992;2024-03-06T12:17:05;8.53;;;7.93;;
26478;SDS011;14163;-26.142;27.992;2024-03-06T12:19:41;8.77;;;8.27;;
26478;SDS011;14163;-26.142;27.992;2024-03-06T12:22:12;8.80;;;8.10;;
26478;SDS011;14163;-26.142;27.992;2024-03-06T12:24:41;9.20;;;8.60;;
26478;SDS011;14163;-26.142;27.992;2024-03-06T12:27:10;7.77;;;7.20;;
26478;SDS011;14163;-26.142;27.992;2024-03-06T12:29:39;7.97;;;7.30;;
26478;SDS011;14163;-26.142;27.992;2024-03-06T12:32:17;9.03;;;8.20;;
26478;SDS011;14163;-26.142;27.992;2024-03-06T12:34:58;9.67;;;8.97;;
26478;SDS011;14163;-26.142;27.992;2024-03-06T12:37:31;9.97;;;9.07;;
26478;SDS011;14163;-26.142;27.992;2024-03-06T12:40:01;12.83;;;7.70;;
26478;SDS011;14163;-26.142;27.992;2024-03-06T12:42:31;9.10;;;8.30;;
26478;SDS011;14163;-26.142;27.992;2024-03-06T12:45:00;9.40;;;8.70;;
26478;SDS011;14163;-26.142;27.992;2024-03-06T12:47:31;10.43;;;9.20;;
26478;SDS011;14163;-26.142;27.992;2024-03-06T12:50:00;9.53;;;8.33;;
26478;SDS011;14163;-26.142;27.992;2024-03-06T12:52:30;8.43;;;7.67;;
26478;SDS011;14163;-26.142;27.992;2024-03-06T12:54:59;9.53;;;8.73;;
26478;SDS011;14163;-26.142;27.992;2024-03-06T12:57:30;8.83;;;7.97;;
26478;SDS011;14163;-26.142;27.992;2024-03-06T12:59:59;9.43;;;7.33;;
26478;SDS011;14163;-26.142;27.992;2024-03-06T13:02:31;9.80;;;7.27;;
26478;SDS011;14163;-26.142;27.992;2024-03-06T13:05:00;10.53;;;8.70;;
26478;SDS011;14163;-26.142;27.992;2024-03-06T13:07:29;9.13;;;7.23;;
26478;SDS011;14163;-26.142;27.992;2024-03-06T13:09:58;9.97;;;7.70;;
26478;SDS011;14163;-26.142;27.992;2024-03-06T13:12:27;9.07;;;8.27;;
26478;SDS011;14163;-26.142;27.992;2024-03-06T13:14:56;8.80;;;8.00;;
26478;SDS011;14163;-26.142;27.992;2024-03-06T13:17:25;11.50;;;7.30;;
26478;SDS011;14163;-26.142;27.992;2024-03-06T13:19:57;8.70;;;7.97;;
26478;SDS011;14163;-26.142;27.992;2024-03-06T13:22:26;7.80;;;7.30;;
26478;SDS011;14163;-26.142;27.992;2024-03-06T13:24:55;9.00;;;8.10;;
26478;SDS011;14163;-26.142;27.992;2024-03-06T13:27:24;7.50;;;6.73;;
26478;SDS011;14163;-26.142;27.992;2024-03-06T13:29:53;7.93;;;7.07;;
26478;SDS011;14163;-26.142;27.992;2024-03-06T13:32:22;6.63;;;6.13;;
26478;SDS011;14163;-26.142;27.992;2024-03-06T13:34:52;7.70;;;6.60;;
26478;SDS011;14163;-26.142;27.992;2024-03-06T13:37:22;7.97;;;7.20;;
26478;SDS011;14163;-26.142;27.992;2024-03-06T13:39:51;7.00;;;6.13;;
26478;SDS011;14163;-26.142;27.992;2024-03-06T13:42:26;10.20;;;5.70;;
26478;SDS011;14163;-26.142;27.992;2024-03-06T13:44:55;5.20;;;4.70;;
26478;SDS011;14163;-26.142;27.992;2024-03-06T13:47:24;5.63;;;5.13;;
26478;SDS011;14163;-26.142;27.992;2024-03-06T13:49:53;4.50;;;4.10;;
26478;SDS011;14163;-26.142;27.992;2024-03-06T13:52:24;4.70;;;3.73;;
26478;SDS011;14163;-26.142;27.992;2024-03-06T13:54:53;4.40;;;3.80;;
26478;SDS011;14163;-26.142;27.992;2024-03-06T13:57:22;5.83;;;3.87;;
26478;SDS011;14163;-26.142;27.992;2024-03-06T13:59:51;4.77;;;4.10;;
26478;SDS011;14163;-26.142;27.992;2024-03-06T14:02:20;3.83;;;3.43;;
26478;SDS011;14163;-26.142;27.992;2024-03-06T16:05:00;8.80;;;4.70;;
26478;SDS011;14163;-26.142;27.992;2024-03-06T16:07:30;5.47;;;4.00;;
26478;SDS011;14163;-26.142;27.992;2024-03-06T16:09:59;5.43;;;4.30;;
26478;SDS011;14163;-26.142;27.992;2024-03-06T16:12:28;4.80;;;4.33;;
26478;SDS011;14163;-26.142;27.992;2024-03-06T16:14:58;5.63;;;5.17;;
26478;SDS011;14163;-26.142;27.992;2024-03-06T16:17:27;6.60;;;4.03;;
26478;SDS011;14163;-26.142;27.992;2024-03-06T16:19:57;5.27;;;4.77;;
26478;SDS011;14163;-26.142;27.992;2024-03-06T16:22:27;7.63;;;4.10;;
26478;SDS011;14163;-26.142;27.992;2024-03-06T16:24:56;4.03;;;3.70;;
26478;SDS011;14163;-26.142;27.992;2024-03-06T16:27:25;5.27;;;4.77;;
26478;SDS011;14163;-26.142;27.992;2024-03-06T16:29:54;8.63;;;4.20;;
26478;SDS011;14163;-26.142;27.992;2024-03-06T16:32:24;4.67;;;4.37;;
26478;SDS011;14163;-26.142;27.992;2024-03-06T16:34:53;4.70;;;4.33;;